sensor_id;sensor_type;location;lat;lon;timestamp;P1;durP1;ratioP1;P2;durP2;ratioP2
75628;SDS011;64213;46.452;16.994;2024-03-02T00:01:58;74.53;;;27.65;;
75628;SDS011;64213;46.452;16.994;2024-03-02T00:05:01;67.22;;;29.25;;
75628;SDS011;64213;46.452;16.994;2024-03-02T00:08:04;68.07;;;27.95;;
75628;SDS011;64213;46.452;16.994;2024-03-02T00:11:09;67.90;;;28.83;;
75628;SDS011;64213;46.452;16.994;2024-03-02T00:14:12;64.77;;;27.10;;
75628;SDS011;64213;46.452;16.994;2024-03-02T00:17:17;67.93;;;26.85;;
75628;SDS011;64213;46.452;16.994;2024-03-02T00:20:26;69.90;;;29.23;;
75628;SDS011;64213;46.452;16.994;2024-03-02T00:23:29;67.55;;;29.12;;
75628;SDS011;64213;46.452;16.994;2024-03-02T00:26:33;68.68;;;28.15;;
75628;SDS011;64213;46.452;16.994;2024-03-02T00:29:36;70.00;;;29.13;;
75628;SDS011;64213;46.452;16.994;2024-03-02T00:32:38;65.97;;;27.02;;
75628;SDS011;64213;46.452;16.994;2024-03-02T00:35:43;72.22;;;29.25;;
75628;SDS011;64213;46.452;16.994;2024-03-02T00:41:51;67.37;;;26.48;;
75628;SDS011;64213;46.452;16.994;2024-03-02T00:44:53;65.10;;;25.80;;
75628;SDS011;64213;46.452;16.994;2024-03-02T00:47:56;64.20;;;27.10;;
75628;SDS011;64213;46.452;16.994;2024-03-02T00:50:58;65.53;;;28.30;;
75628;SDS011;64213;46.452;16.994;2024-03-02T00:54:02;60.15;;;25.45;;
75628;SDS011;64213;46.452;16.994;2024-03-02T00:57:07;67.97;;;28.15;;
75628;SDS011;64213;46.452;16.994;2024-03-02T01:00:14;62.77;;;26.10;;
75628;SDS011;64213;46.452;16.994;2024-03-02T01:03:19;61.70;;;26.70;;
75628;SDS011;64213;46.452;16.994;2024-03-02T01:06:23;63.25;;;27.45;;
75628;SDS011;64213;46.452;16.994;2024-03-02T01:09:27;63.42;;;26.77;;
75628;SDS011;64213;46.452;16.994;2024-03-02T01:12:30;59.78;;;26.58;;
75628;SDS011;64213;46.452;16.994;2024-03-02T01:15:33;56.17;;;24.07;;
75628;SDS011;64213;46.452;16.994;2024-03-02T01:18:36;60.55;;;25.70;;
75628;SDS011;64213;46.452;16.994;2024-03-02T01:21:38;59.05;;;27.65;;
75628;SDS011;64213;46.452;16.994;2024-03-02T01:24:40;61.25;;;25.35;;
75628;SDS011;64213;46.452;16.994;2024-03-02T01:27:43;53.60;;;23.05;;
75628;SDS011;64213;46.452;16.994;2024-03-02T01:30:49;56.13;;;24.63;;
75628;SDS011;64213;46.452;16.994;2024-03-02T01:33:51;61.90;;;24.67;;
75628;SDS011;64213;46.452;16.994;2024-03-02T01:36:56;60.40;;;26.67;;
75628;SDS011;64213;46.452;16.994;2024-03-02T01:39:58;60.67;;;26.70;;
75628;SDS011;64213;46.452;16.994;2024-03-02T01:43:01;60.33;;;26.83;;
75628;SDS011;64213;46.452;16.994;2024-03-02T01:46:04;59.97;;;24.07;;
75628;SDS011;64213;46.452;16.994;2024-03-02T01:49:07;58.17;;;25.62;;
75628;SDS011;64213;46.452;16.994;2024-03-02T01:52:09;58.65;;;25.83;;
75628;SDS011;64213;46.452;16.994;2024-03-02T01:55:13;58.45;;;24.85;;
75628;SDS011;64213;46.452;16.994;2024-03-02T01:58:16;51.17;;;23.70;;
75628;SDS011;64213;46.452;16.994;2024-03-02T02:01:19;64.80;;;26.00;;
75628;SDS011;64213;46.452;16.994;2024-03-02T02:04:21;61.42;;;24.98;;
75628;SDS011;64213;46.452;16.994;2024-03-02T02:07:29;57.70;;;24.02;;
75628;SDS011;64213;46.452;16.994;2024-03-02T02:10:31;55.90;;;22.27;;
75628;SDS011;64213;46.452;16.994;2024-03-02T02:13:34;54.33;;;23.02;;
75628;SDS011;64213;46.452;16.994;2024-03-02T02:16:36;64.43;;;24.90;;
75628;SDS011;64213;46.452;16.994;2024-03-02T02:19:40;59.47;;;24.27;;
75628;SDS011;64213;46.452;16.994;2024-03-02T02:22:58;64.75;;;26.55;;
75628;SDS011;64213;46.452;16.994;2024-03-02T02:26:05;59.80;;;25.88;;
75628;SDS011;64213;46.452;16.994;2024-03-02T02:29:07;63.97;;;26.20;;
75628;SDS011;64213;46.452;16.994;2024-03-02T02:32:09;61.40;;;25.93;;
75628;SDS011;64213;46.452;16.994;2024-03-02T02:35:12;64.68;;;24.77;;
75628;SDS011;64213;46.452;16.994;2024-03-02T02:38:14;60.83;;;25.40;;
75628;SDS011;64213;46.452;16.994;2024-03-02T02:41:17;63.65;;;24.67;;
75628;SDS011;64213;46.452;16.994;2024-03-02T02:44:19;63.30;;;26.77;;
75628;SDS011;64213;46.452;16.994;2024-03-02T02:47:21;66.23;;;26.73;;
75628;SDS011;64213;46.452;16.994;2024-03-02T02:50:24;66.18;;;26.67;;
75628;SDS011;64213;46.452;16.994;2024-03-02T02:53:26;42.20;;;17.65;;
75628;SDS011;64213;46.452;16.994;2024-03-02T02:56:29;61.55;;;24.42;;
75628;SDS011;64213;46.452;16.994;2024-03-02T02:59:31;61.88;;;25.17;;
75628;SDS011;64213;46.452;16.994;2024-03-02T03:02:33;37.77;;;15.47;;
75628;SDS011;64213;46.452;16.994;2024-03-02T03:05:36;48.13;;;20.37;;
75628;SDS011;64213;46.452;16.994;2024-03-02T03:08:38;56.28;;;25.08;;
75628;SDS011;64213;46.452;16.994;2024-03-02T03:11:41;58.08;;;24.65;;
75628;SDS011;64213;46.452;16.994;2024-03-02T03:14:43;58.60;;;26.20;;
75628;SDS011;64213;46.452;16.994;2024-03-02T03:17:46;61.77;;;25.27;;
75628;SDS011;64213;46.452;16.994;2024-03-02T03:20:49;61.97;;;24.40;;
75628;SDS011;64213;46.452;16.994;2024-03-02T03:23:51;64.53;;;26.52;;
75628;SDS011;64213;46.452;16.994;2024-03-02T03:26:54;69.47;;;26.02;;
75628;SDS011;64213;46.452;16.994;2024-03-02T03:29:56;65.35;;;25.98;;
75628;SDS011;64213;46.452;16.994;2024-03-02T03:32:59;66.37;;;24.70;;
75628;SDS011;64213;46.452;16.994;2024-03-02T03:36:02;63.80;;;25.05;;
75628;SDS011;64213;46.452;16.994;2024-03-02T03:39:05;65.90;;;25.25;;
75628;SDS011;64213;46.452;16.994;2024-03-02T03:42:08;57.65;;;24.02;;
75628;SDS011;64213;46.452;16.994;2024-03-02T03:45:10;61.30;;;23.60;;
75628;SDS011;64213;46.452;16.994;2024-03-02T03:48:13;59.27;;;24.00;;
75628;SDS011;64213;46.452;16.994;2024-03-02T03:51:16;64.15;;;25.10;;
75628;SDS011;64213;46.452;16.994;2024-03-02T03:54:18;60.97;;;23.98;;
75628;SDS011;64213;46.452;16.994;2024-03-02T03:57:21;60.03;;;22.95;;
75628;SDS011;64213;46.452;16.994;2024-03-02T04:00:23;58.60;;;24.33;;
75628;SDS011;64213;46.452;16.994;2024-03-02T04:03:26;54.33;;;21.83;;
75628;SDS011;64213;46.452;16.994;2024-03-02T04:06:29;56.22;;;22.67;;
75628;SDS011;64213;46.452;16.994;2024-03-02T04:09:32;56.80;;;23.80;;
75628;SDS011;64213;46.452;16.994;2024-03-02T04:12:38;55.45;;;22.50;;
75628;SDS011;64213;46.452;16.994;2024-03-02T04:15:40;60.10;;;23.95;;
75628;SDS011;64213;46.452;16.994;2024-03-02T04:18:43;60.80;;;23.77;;
75628;SDS011;64213;46.452;16.994;2024-03-02T04:21:45;57.92;;;24.63;;
75628;SDS011;64213;46.452;16.994;2024-03-02T04:24:48;64.05;;;28.00;;
75628;SDS011;64213;46.452;16.994;2024-03-02T04:27:50;61.22;;;26.30;;
75628;SDS011;64213;46.452;16.994;2024-03-02T04:30:52;62.42;;;25.62;;
75628;SDS011;64213;46.452;16.994;2024-03-02T04:33:55;60.33;;;25.23;;
75628;SDS011;64213;46.452;16.994;2024-03-02T04:36:58;67.35;;;27.58;;
75628;SDS011;64213;46.452;16.994;2024-03-02T04:40:01;61.63;;;25.52;;
75628;SDS011;64213;46.452;16.994;2024-03-02T04:43:03;62.15;;;26.27;;
75628;SDS011;64213;46.452;16.994;2024-03-02T04:46:06;60.40;;;23.85;;
75628;SDS011;64213;46.452;16.994;2024-03-02T04:49:09;58.23;;;24.77;;
75628;SDS011;64213;46.452;16.994;2024-03-02T04:52:12;57.55;;;25.05;;
75628;SDS011;64213;46.452;16.994;2024-03-02T04:55:14;61.92;;;25.62;;
75628;SDS011;64213;46.452;16.994;2024-03-02T04:58:29;61.25;;;25.33;;
75628;SDS011;64213;46.452;16.994;2024-03-02T05:01:32;63.50;;;24.85;;
75628;SDS011;64213;46.452;16.994;2024-03-02T05:04:35;56.50;;;23.43;;
75628;SDS011;64213;46.452;16.994;2024-03-02T05:07:38;62.97;;;23.05;;
75628;SDS011;64213;46.452;16.994;2024-03-02T05:10:40;49.47;;;21.35;;
75628;SDS011;64213;46.452;16.994;2024-03-02T05:13:43;56.35;;;23.85;;
75628;SDS011;64213;46.452;16.994;2024-03-02T05:16:45;61.10;;;26.00;;
75628;SDS011;64213;46.452;16.994;2024-03-02T05:19:47;62.83;;;24.67;;
75628;SDS011;64213;46.452;16.994;2024-03-02T05:22:50;58.33;;;23.75;;
75628;SDS011;64213;46.452;16.994;2024-03-02T05:25:53;64.65;;;25.52;;
75628;SDS011;64213;46.452;16.994;2024-03-02T05:28:56;62.30;;;23.75;;
75628;SDS011;64213;46.452;16.994;2024-03-02T05:31:58;59.35;;;22.73;;
75628;SDS011;64213;46.452;16.994;2024-03-02T05:35:01;59.07;;;24.97;;
75628;SDS011;64213;46.452;16.994;2024-03-02T05:38:04;64.60;;;25.00;;
75628;SDS011;64213;46.452;16.994;2024-03-02T05:41:07;65.78;;;24.48;;
75628;SDS011;64213;46.452;16.994;2024-03-02T05:44:09;63.95;;;24.92;;
75628;SDS011;64213;46.452;16.994;2024-03-02T05:47:11;65.75;;;25.33;;
75628;SDS011;64213;46.452;16.994;2024-03-02T05:50:14;61.10;;;24.30;;
75628;SDS011;64213;46.452;16.994;2024-03-02T05:53:16;67.47;;;27.17;;
75628;SDS011;64213;46.452;16.994;2024-03-02T05:56:19;63.72;;;24.95;;
75628;SDS011;64213;46.452;16.994;2024-03-02T05:59:22;65.07;;;24.85;;
75628;SDS011;64213;46.452;16.994;2024-03-02T06:02:24;67.60;;;27.10;;
75628;SDS011;64213;46.452;16.994;2024-03-02T06:05:26;61.93;;;24.70;;
75628;SDS011;64213;46.452;16.994;2024-03-02T06:08:29;65.93;;;26.05;;
75628;SDS011;64213;46.452;16.994;2024-03-02T06:11:31;68.07;;;26.27;;
75628;SDS011;64213;46.452;16.994;2024-03-02T06:14:34;66.18;;;25.17;;
75628;SDS011;64213;46.452;16.994;2024-03-02T06:17:36;67.53;;;25.75;;
75628;SDS011;64213;46.452;16.994;2024-03-02T06:20:39;61.90;;;24.57;;
75628;SDS011;64213;46.452;16.994;2024-03-02T06:23:43;62.17;;;25.45;;
75628;SDS011;64213;46.452;16.994;2024-03-02T06:26:46;64.62;;;26.55;;
75628;SDS011;64213;46.452;16.994;2024-03-02T06:29:48;67.00;;;28.60;;
75628;SDS011;64213;46.452;16.994;2024-03-02T06:32:51;64.22;;;25.90;;
75628;SDS011;64213;46.452;16.994;2024-03-02T06:35:53;61.40;;;25.97;;
75628;SDS011;64213;46.452;16.994;2024-03-02T06:38:56;63.50;;;27.52;;
75628;SDS011;64213;46.452;16.994;2024-03-02T06:41:59;67.28;;;28.92;;
75628;SDS011;64213;46.452;16.994;2024-03-02T06:45:01;65.20;;;24.37;;
75628;SDS011;64213;46.452;16.994;2024-03-02T06:48:05;66.45;;;24.40;;
75628;SDS011;64213;46.452;16.994;2024-03-02T06:51:07;65.00;;;25.67;;
75628;SDS011;64213;46.452;16.994;2024-03-02T06:54:10;72.05;;;26.67;;
75628;SDS011;64213;46.452;16.994;2024-03-02T06:57:12;61.08;;;24.10;;
75628;SDS011;64213;46.452;16.994;2024-03-02T07:00:15;65.85;;;25.45;;
75628;SDS011;64213;46.452;16.994;2024-03-02T07:03:19;61.88;;;24.35;;
75628;SDS011;64213;46.452;16.994;2024-03-02T07:06:22;65.03;;;24.67;;
75628;SDS011;64213;46.452;16.994;2024-03-02T07:09:24;57.45;;;22.95;;
75628;SDS011;64213;46.452;16.994;2024-03-02T07:12:27;60.78;;;23.87;;
75628;SDS011;64213;46.452;16.994;2024-03-02T07:15:30;62.72;;;25.23;;
75628;SDS011;64213;46.452;16.994;2024-03-02T07:18:49;60.08;;;24.12;;
75628;SDS011;64213;46.452;16.994;2024-03-02T07:21:54;57.57;;;23.13;;
75628;SDS011;64213;46.452;16.994;2024-03-02T07:24:57;51.47;;;21.30;;
75628;SDS011;64213;46.452;16.994;2024-03-02T07:27:59;54.30;;;22.02;;
75628;SDS011;64213;46.452;16.994;2024-03-02T07:31:02;53.95;;;23.05;;
75628;SDS011;64213;46.452;16.994;2024-03-02T07:34:07;55.08;;;22.62;;
75628;SDS011;64213;46.452;16.994;2024-03-02T07:37:09;52.47;;;21.27;;
75628;SDS011;64213;46.452;16.994;2024-03-02T07:40:12;50.83;;;21.73;;
75628;SDS011;64213;46.452;16.994;2024-03-02T07:43:15;49.45;;;21.95;;
75628;SDS011;64213;46.452;16.994;2024-03-02T07:46:18;50.45;;;21.42;;
75628;SDS011;64213;46.452;16.994;2024-03-02T07:49:22;51.00;;;20.95;;
75628;SDS011;64213;46.452;16.994;2024-03-02T07:52:25;53.40;;;22.10;;
75628;SDS011;64213;46.452;16.994;2024-03-02T07:55:28;51.45;;;21.17;;
75628;SDS011;64213;46.452;16.994;2024-03-02T07:58:30;56.10;;;22.20;;
75628;SDS011;64213;46.452;16.994;2024-03-02T08:01:33;58.00;;;23.50;;
75628;SDS011;64213;46.452;16.994;2024-03-02T08:04:36;57.95;;;22.73;;
75628;SDS011;64213;46.452;16.994;2024-03-02T08:07:39;51.63;;;22.57;;
75628;SDS011;64213;46.452;16.994;2024-03-02T08:10:42;49.85;;;21.23;;
75628;SDS011;64213;46.452;16.994;2024-03-02T08:13:46;52.88;;;21.20;;
75628;SDS011;64213;46.452;16.994;2024-03-02T08:16:48;49.47;;;20.95;;
75628;SDS011;64213;46.452;16.994;2024-03-02T08:19:51;53.28;;;20.90;;
75628;SDS011;64213;46.452;16.994;2024-03-02T08:22:54;53.37;;;21.67;;
75628;SDS011;64213;46.452;16.994;2024-03-02T08:25:57;47.03;;;19.10;;
75628;SDS011;64213;46.452;16.994;2024-03-02T08:28:59;28.95;;;11.52;;
75628;SDS011;64213;46.452;16.994;2024-03-02T08:32:03;48.33;;;19.90;;
75628;SDS011;64213;46.452;16.994;2024-03-02T08:35:06;50.33;;;20.27;;
75628;SDS011;64213;46.452;16.994;2024-03-02T08:38:09;50.17;;;21.30;;
75628;SDS011;64213;46.452;16.994;2024-03-02T08:41:11;49.78;;;19.15;;
75628;SDS011;64213;46.452;16.994;2024-03-02T08:44:16;52.33;;;21.15;;
75628;SDS011;64213;46.452;16.994;2024-03-02T08:47:19;47.28;;;19.08;;
75628;SDS011;64213;46.452;16.994;2024-03-02T08:50:22;48.40;;;21.80;;
75628;SDS011;64213;46.452;16.994;2024-03-02T08:53:24;50.17;;;19.97;;
75628;SDS011;64213;46.452;16.994;2024-03-02T08:56:27;51.37;;;20.88;;
75628;SDS011;64213;46.452;16.994;2024-03-02T08:59:29;48.87;;;21.45;;
75628;SDS011;64213;46.452;16.994;2024-03-02T09:02:31;52.72;;;21.10;;
75628;SDS011;64213;46.452;16.994;2024-03-02T09:05:34;49.47;;;19.67;;
75628;SDS011;64213;46.452;16.994;2024-03-02T09:08:36;52.43;;;22.47;;
75628;SDS011;64213;46.452;16.994;2024-03-02T09:11:40;50.58;;;21.20;;
75628;SDS011;64213;46.452;16.994;2024-03-02T09:14:42;55.78;;;22.52;;
75628;SDS011;64213;46.452;16.994;2024-03-02T09:17:45;49.50;;;20.02;;
75628;SDS011;64213;46.452;16.994;2024-03-02T09:20:47;49.20;;;21.77;;
75628;SDS011;64213;46.452;16.994;2024-03-02T09:23:50;48.30;;;19.20;;
75628;SDS011;64213;46.452;16.994;2024-03-02T09:26:52;49.53;;;18.25;;
75628;SDS011;64213;46.452;16.994;2024-03-02T09:29:56;45.47;;;19.95;;
75628;SDS011;64213;46.452;16.994;2024-03-02T09:32:58;43.58;;;19.48;;
75628;SDS011;64213;46.452;16.994;2024-03-02T09:36:03;49.53;;;20.33;;
75628;SDS011;64213;46.452;16.994;2024-03-02T09:39:07;53.37;;;21.97;;
75628;SDS011;64213;46.452;16.994;2024-03-02T09:42:12;48.92;;;19.67;;
75628;SDS011;64213;46.452;16.994;2024-03-02T09:45:15;53.90;;;21.95;;
75628;SDS011;64213;46.452;16.994;2024-03-02T09:48:18;51.97;;;20.75;;
75628;SDS011;64213;46.452;16.994;2024-03-02T09:51:22;50.55;;;20.73;;
75628;SDS011;64213;46.452;16.994;2024-03-02T09:54:25;48.50;;;19.93;;
75628;SDS011;64213;46.452;16.994;2024-03-02T09:57:28;53.50;;;19.95;;
75628;SDS011;64213;46.452;16.994;2024-03-02T10:00:30;50.30;;;19.35;;
75628;SDS011;64213;46.452;16.994;2024-03-02T10:03:33;48.38;;;20.33;;
75628;SDS011;64213;46.452;16.994;2024-03-02T10:06:36;43.92;;;17.52;;
75628;SDS011;64213;46.452;16.994;2024-03-02T10:09:39;45.93;;;18.50;;
75628;SDS011;64213;46.452;16.994;2024-03-02T10:12:42;45.00;;;18.55;;
75628;SDS011;64213;46.452;16.994;2024-03-02T10:15:44;47.75;;;19.73;;
75628;SDS011;64213;46.452;16.994;2024-03-02T10:18:49;44.33;;;19.55;;
75628;SDS011;64213;46.452;16.994;2024-03-02T10:21:55;47.70;;;19.73;;
75628;SDS011;64213;46.452;16.994;2024-03-02T10:25:02;48.33;;;19.27;;
75628;SDS011;64213;46.452;16.994;2024-03-02T10:28:27;46.92;;;19.12;;
75628;SDS011;64213;46.452;16.994;2024-03-02T10:31:32;46.53;;;18.98;;
75628;SDS011;64213;46.452;16.994;2024-03-02T10:34:36;49.55;;;19.37;;
75628;SDS011;64213;46.452;16.994;2024-03-02T10:37:38;49.38;;;19.45;;
75628;SDS011;64213;46.452;16.994;2024-03-02T10:40:41;45.83;;;18.43;;
75628;SDS011;64213;46.452;16.994;2024-03-02T10:43:50;45.12;;;18.73;;
75628;SDS011;64213;46.452;16.994;2024-03-02T10:46:54;41.25;;;17.52;;
75628;SDS011;64213;46.452;16.994;2024-03-02T10:49:58;41.85;;;17.98;;
75628;SDS011;64213;46.452;16.994;2024-03-02T10:53:03;30.50;;;12.35;;
75628;SDS011;64213;46.452;16.994;2024-03-02T10:56:09;45.20;;;17.23;;
75628;SDS011;64213;46.452;16.994;2024-03-02T10:59:26;41.85;;;17.25;;
75628;SDS011;64213;46.452;16.994;2024-03-02T11:02:31;38.25;;;17.15;;
75628;SDS011;64213;46.452;16.994;2024-03-02T11:05:36;42.65;;;17.10;;
75628;SDS011;64213;46.452;16.994;2024-03-02T11:08:43;40.00;;;17.92;;
75628;SDS011;64213;46.452;16.994;2024-03-02T11:11:50;41.50;;;18.13;;
75628;SDS011;64213;46.452;16.994;2024-03-02T11:15:02;42.65;;;18.12;;
75628;SDS011;64213;46.452;16.994;2024-03-02T11:18:10;37.55;;;16.45;;
75628;SDS011;64213;46.452;16.994;2024-03-02T11:21:14;36.28;;;15.55;;
75628;SDS011;64213;46.452;16.994;2024-03-02T11:30:48;33.00;;;15.57;;
75628;SDS011;64213;46.452;16.994;2024-03-02T11:33:51;36.67;;;17.17;;
75628;SDS011;64213;46.452;16.994;2024-03-02T11:36:54;35.45;;;15.93;;
75628;SDS011;64213;46.452;16.994;2024-03-02T11:39:56;36.03;;;16.08;;
75628;SDS011;64213;46.452;16.994;2024-03-02T11:42:59;34.30;;;14.70;;
75628;SDS011;64213;46.452;16.994;2024-03-02T11:46:05;35.67;;;16.60;;
75628;SDS011;64213;46.452;16.994;2024-03-02T11:49:14;37.80;;;17.00;;
75628;SDS011;64213;46.452;16.994;2024-03-02T11:52:17;39.55;;;17.20;;
75628;SDS011;64213;46.452;16.994;2024-03-02T11:55:20;41.78;;;18.15;;
75628;SDS011;64213;46.452;16.994;2024-03-02T11:58:24;34.03;;;15.93;;
75628;SDS011;64213;46.452;16.994;2024-03-02T12:01:28;18.10;;;8.23;;
75628;SDS011;64213;46.452;16.994;2024-03-02T12:04:32;27.55;;;13.55;;
75628;SDS011;64213;46.452;16.994;2024-03-02T12:07:36;28.58;;;13.50;;
75628;SDS011;64213;46.452;16.994;2024-03-02T12:10:39;30.12;;;14.32;;
75628;SDS011;64213;46.452;16.994;2024-03-02T12:17:57;30.20;;;14.57;;
75628;SDS011;64213;46.452;16.994;2024-03-02T12:21:03;34.38;;;15.40;;
75628;SDS011;64213;46.452;16.994;2024-03-02T12:24:08;30.62;;;12.23;;
75628;SDS011;64213;46.452;16.994;2024-03-02T12:27:12;27.08;;;11.80;;
75628;SDS011;64213;46.452;16.994;2024-03-02T12:30:17;29.87;;;14.53;;
75628;SDS011;64213;46.452;16.994;2024-03-02T12:33:20;29.27;;;14.10;;
75628;SDS011;64213;46.452;16.994;2024-03-02T12:36:24;30.15;;;14.73;;
75628;SDS011;64213;46.452;16.994;2024-03-02T12:39:27;31.67;;;15.02;;
75628;SDS011;64213;46.452;16.994;2024-03-02T12:42:30;30.75;;;13.75;;
75628;SDS011;64213;46.452;16.994;2024-03-02T12:45:34;28.27;;;14.10;;
75628;SDS011;64213;46.452;16.994;2024-03-02T12:48:37;29.63;;;14.35;;
75628;SDS011;64213;46.452;16.994;2024-03-02T12:51:43;26.27;;;12.82;;
75628;SDS011;64213;46.452;16.994;2024-03-02T12:54:47;34.70;;;15.18;;
75628;SDS011;64213;46.452;16.994;2024-03-02T12:57:50;32.33;;;16.42;;
75628;SDS011;64213;46.452;16.994;2024-03-02T13:01:07;31.03;;;14.13;;
75628;SDS011;64213;46.452;16.994;2024-03-02T13:04:13;28.58;;;15.43;;
75628;SDS011;64213;46.452;16.994;2024-03-02T13:07:16;31.15;;;15.65;;
75628;SDS011;64213;46.452;16.994;2024-03-02T13:10:20;31.83;;;15.18;;
75628;SDS011;64213;46.452;16.994;2024-03-02T13:13:23;29.87;;;14.87;;
75628;SDS011;64213;46.452;16.994;2024-03-02T13:16:25;28.70;;;14.47;;
75628;SDS011;64213;46.452;16.994;2024-03-02T13:19:34;28.17;;;14.27;;
75628;SDS011;64213;46.452;16.994;2024-03-02T13:22:37;26.90;;;12.07;;
75628;SDS011;64213;46.452;16.994;2024-03-02T13:25:40;27.15;;;14.02;;
75628;SDS011;64213;46.452;16.994;2024-03-02T13:28:43;26.87;;;13.02;;
75628;SDS011;64213;46.452;16.994;2024-03-02T13:31:45;28.20;;;14.63;;
75628;SDS011;64213;46.452;16.994;2024-03-02T13:34:49;29.40;;;14.82;;
75628;SDS011;64213;46.452;16.994;2024-03-02T13:37:52;24.25;;;12.90;;
75628;SDS011;64213;46.452;16.994;2024-03-02T13:40:54;24.63;;;11.85;;
75628;SDS011;64213;46.452;16.994;2024-03-02T13:43:56;24.52;;;13.18;;
75628;SDS011;64213;46.452;16.994;2024-03-02T13:46:59;25.37;;;12.43;;
75628;SDS011;64213;46.452;16.994;2024-03-02T13:50:02;23.02;;;12.02;;
75628;SDS011;64213;46.452;16.994;2024-03-02T13:53:07;29.15;;;13.65;;
75628;SDS011;64213;46.452;16.994;2024-03-02T13:56:10;27.50;;;13.68;;
75628;SDS011;64213;46.452;16.994;2024-03-02T13:59:13;24.87;;;12.95;;
75628;SDS011;64213;46.452;16.994;2024-03-02T14:02:16;26.23;;;12.50;;
75628;SDS011;64213;46.452;16.994;2024-03-02T14:05:18;25.85;;;12.23;;
75628;SDS011;64213;46.452;16.994;2024-03-02T14:08:25;26.92;;;13.00;;
75628;SDS011;64213;46.452;16.994;2024-03-02T14:11:27;22.48;;;10.93;;
75628;SDS011;64213;46.452;16.994;2024-03-02T14:18:40;21.97;;;11.90;;
75628;SDS011;64213;46.452;16.994;2024-03-02T14:21:43;26.67;;;13.77;;
75628;SDS011;64213;46.452;16.994;2024-03-02T14:24:46;27.05;;;11.75;;
75628;SDS011;64213;46.452;16.994;2024-03-02T14:27:50;22.23;;;10.00;;
75628;SDS011;64213;46.452;16.994;2024-03-02T14:31:13;21.35;;;10.68;;
75628;SDS011;64213;46.452;16.994;2024-03-02T14:34:15;23.30;;;10.63;;
75628;SDS011;64213;46.452;16.994;2024-03-02T14:37:19;24.30;;;10.98;;
75628;SDS011;64213;46.452;16.994;2024-03-02T14:40:21;25.12;;;11.12;;
75628;SDS011;64213;46.452;16.994;2024-03-02T14:43:25;22.58;;;9.32;;
75628;SDS011;64213;46.452;16.994;2024-03-02T14:46:27;20.23;;;9.65;;
75628;SDS011;64213;46.452;16.994;2024-03-02T14:49:30;19.90;;;9.93;;
75628;SDS011;64213;46.452;16.994;2024-03-02T14:52:33;23.90;;;10.93;;
75628;SDS011;64213;46.452;16.994;2024-03-02T14:55:36;22.73;;;9.93;;
75628;SDS011;64213;46.452;16.994;2024-03-02T14:58:39;19.83;;;8.27;;
75628;SDS011;64213;46.452;16.994;2024-03-02T15:05:40;20.70;;;9.63;;
75628;SDS011;64213;46.452;16.994;2024-03-02T15:08:44;20.88;;;9.40;;
75628;SDS011;64213;46.452;16.994;2024-03-02T15:11:50;21.33;;;9.07;;
75628;SDS011;64213;46.452;16.994;2024-03-02T15:14:53;21.40;;;8.90;;
75628;SDS011;64213;46.452;16.994;2024-03-02T15:17:57;20.90;;;9.27;;
75628;SDS011;64213;46.452;16.994;2024-03-02T15:21:02;20.07;;;8.23;;
75628;SDS011;64213;46.452;16.994;2024-03-02T15:24:07;20.85;;;8.60;;
75628;SDS011;64213;46.452;16.994;2024-03-02T15:27:13;17.33;;;7.43;;
75628;SDS011;64213;46.452;16.994;2024-03-02T15:30:15;16.05;;;6.80;;
75628;SDS011;64213;46.452;16.994;2024-03-02T15:33:19;18.08;;;7.75;;
75628;SDS011;64213;46.452;16.994;2024-03-02T15:36:22;17.67;;;7.30;;
75628;SDS011;64213;46.452;16.994;2024-03-02T15:39:25;19.15;;;7.70;;
75628;SDS011;64213;46.452;16.994;2024-03-02T15:42:29;16.42;;;7.43;;
75628;SDS011;64213;46.452;16.994;2024-03-02T15:45:32;17.48;;;6.68;;
75628;SDS011;64213;46.452;16.994;2024-03-02T15:48:36;17.20;;;7.70;;
75628;SDS011;64213;46.452;16.994;2024-03-02T15:51:38;17.33;;;7.40;;
75628;SDS011;64213;46.452;16.994;2024-03-02T15:54:47;17.83;;;7.15;;
75628;SDS011;64213;46.452;16.994;2024-03-02T15:57:53;19.05;;;7.45;;
75628;SDS011;64213;46.452;16.994;2024-03-02T16:00:56;18.37;;;8.13;;
75628;SDS011;64213;46.452;16.994;2024-03-02T16:04:00;17.77;;;7.25;;
75628;SDS011;64213;46.452;16.994;2024-03-02T16:07:04;22.70;;;8.27;;
75628;SDS011;64213;46.452;16.994;2024-03-02T16:10:09;22.02;;;8.93;;
75628;SDS011;64213;46.452;16.994;2024-03-02T16:13:12;18.83;;;8.02;;
75628;SDS011;64213;46.452;16.994;2024-03-02T16:16:16;21.80;;;9.05;;
75628;SDS011;64213;46.452;16.994;2024-03-02T16:19:19;29.95;;;12.50;;
75628;SDS011;64213;46.452;16.994;2024-03-02T16:22:34;26.20;;;9.87;;
75628;SDS011;64213;46.452;16.994;2024-03-02T16:25:41;25.45;;;10.63;;
75628;SDS011;64213;46.452;16.994;2024-03-02T16:28:45;26.73;;;10.20;;
75628;SDS011;64213;46.452;16.994;2024-03-02T16:31:52;22.90;;;8.85;;
75628;SDS011;64213;46.452;16.994;2024-03-02T16:34:55;20.60;;;8.52;;
75628;SDS011;64213;46.452;16.994;2024-03-02T16:37:58;17.90;;;7.47;;
75628;SDS011;64213;46.452;16.994;2024-03-02T16:41:01;18.25;;;8.00;;
75628;SDS011;64213;46.452;16.994;2024-03-02T16:44:03;17.15;;;7.85;;
75628;SDS011;64213;46.452;16.994;2024-03-02T16:47:08;19.05;;;8.13;;
75628;SDS011;64213;46.452;16.994;2024-03-02T16:50:16;16.92;;;7.28;;
75628;SDS011;64213;46.452;16.994;2024-03-02T16:53:18;20.70;;;7.60;;
75628;SDS011;64213;46.452;16.994;2024-03-02T16:56:21;22.15;;;7.28;;
75628;SDS011;64213;46.452;16.994;2024-03-02T16:59:23;20.33;;;8.32;;
75628;SDS011;64213;46.452;16.994;2024-03-02T17:02:26;18.37;;;8.52;;
75628;SDS011;64213;46.452;16.994;2024-03-02T17:05:28;22.30;;;9.30;;
75628;SDS011;64213;46.452;16.994;2024-03-02T17:08:31;24.20;;;9.63;;
75628;SDS011;64213;46.452;16.994;2024-03-02T17:11:34;25.90;;;10.35;;
75628;SDS011;64213;46.452;16.994;2024-03-02T17:18:24;21.42;;;9.65;;
75628;SDS011;64213;46.452;16.994;2024-03-02T17:21:48;22.62;;;10.57;;
75628;SDS011;64213;46.452;16.994;2024-03-02T17:24:51;20.93;;;8.80;;
75628;SDS011;64213;46.452;16.994;2024-03-02T17:28:17;25.45;;;11.43;;
75628;SDS011;64213;46.452;16.994;2024-03-02T17:31:23;26.42;;;12.82;;
75628;SDS011;64213;46.452;16.994;2024-03-02T17:34:26;25.48;;;10.07;;
75628;SDS011;64213;46.452;16.994;2024-03-02T17:37:30;24.83;;;11.80;;
75628;SDS011;64213;46.452;16.994;2024-03-02T17:40:32;27.47;;;13.23;;
75628;SDS011;64213;46.452;16.994;2024-03-02T17:43:35;27.95;;;11.38;;
75628;SDS011;64213;46.452;16.994;2024-03-02T17:46:37;18.30;;;7.72;;
75628;SDS011;64213;46.452;16.994;2024-03-02T17:49:40;17.95;;;7.80;;
75628;SDS011;64213;46.452;16.994;2024-03-02T17:52:43;17.37;;;6.97;;
75628;SDS011;64213;46.452;16.994;2024-03-02T17:55:46;16.30;;;6.43;;
75628;SDS011;64213;46.452;16.994;2024-03-02T17:58:48;17.67;;;6.93;;
75628;SDS011;64213;46.452;16.994;2024-03-02T18:01:51;16.55;;;6.87;;
75628;SDS011;64213;46.452;16.994;2024-03-02T18:04:54;17.80;;;5.85;;
75628;SDS011;64213;46.452;16.994;2024-03-02T18:07:57;15.48;;;5.82;;